createdAt,value
2019-04-14T00:03:11.517Z,32.07
2019-04-14T00:06:17.806Z,32.00
2019-04-14T00:09:23.208Z,32.97
2019-04-14T00:12:29.405Z,31.67
2019-04-14T00:15:39.546Z,31.70
2019-04-14T00:18:42.533Z,29.47
2019-04-14T00:21:47.694Z,30.27
2019-04-14T00:24:53.202Z,28.67
2019-04-14T00:27:58.606Z,27.17
2019-04-14T00:31:04.506Z,28.80
2019-04-14T00:34:20.276Z,28.87
2019-04-14T00:37:36.398Z,29.37
2019-04-14T00:40:47.625Z,31.73
2019-04-14T00:44:12.771Z,28.63
2019-04-14T00:47:24.649Z,28.23
2019-04-14T00:50:30.176Z,29.83
2019-04-14T00:53:36.013Z,28.77
2019-04-14T00:56:41.225Z,28.23
2019-04-14T00:59:46.440Z,30.30
2019-04-14T01:02:51.614Z,28.50
2019-04-14T01:05:56.877Z,32.77
2019-04-14T01:09:02.161Z,30.20
2019-04-14T01:12:08.217Z,30.87
2019-04-14T01:15:13.676Z,30.50
2019-04-14T01:18:19.007Z,30.67
2019-04-14T01:21:24.258Z,29.70
2019-04-14T01:24:29.457Z,30.73
2019-04-14T01:27:34.450Z,32.27
2019-04-14T01:30:39.504Z,31.60
2019-04-14T01:33:44.516Z,29.17
2019-04-14T01:36:49.742Z,31.23
2019-04-14T01:39:54.757Z,30.90
2019-04-14T01:42:59.968Z,29.10
2019-04-14T01:46:12.493Z,28.33
2019-04-14T01:49:11.743Z,30.67
2019-04-14T01:52:47.947Z,28.47
2019-04-14T01:55:59.859Z,31.73
2019-04-14T01:59:06.498Z,31.20
2019-04-14T02:02:14.110Z,30.37
2019-04-14T02:05:19.265Z,31.87
2019-04-14T02:08:24.215Z,30.50
2019-04-14T02:11:29.286Z,31.70
2019-04-14T02:14:34.453Z,32.77
2019-04-14T02:17:39.493Z,28.53
2019-04-14T02:20:44.760Z,32.73
2019-04-14T02:23:49.919Z,29.23
2019-04-14T02:26:54.835Z,27.67
2019-04-14T02:30:00.330Z,31.33
2019-04-14T02:33:41.444Z,29.87
2019-04-14T02:36:37.877Z,28.67
2019-04-14T02:39:53.682Z,33.47
2019-04-14T02:42:54.364Z,29.53
2019-04-14T02:45:59.666Z,28.83
2019-04-14T02:49:08.260Z,30.80
2019-04-14T02:52:11.918Z,30.20
2019-04-14T02:55:15.356Z,30.03
2019-04-14T02:58:26.704Z,35.87
2019-04-14T03:02:02.396Z,33.20
2019-04-14T03:07:46.973Z,30.93
2019-04-14T03:10:55.819Z,33.03
2019-04-14T03:17:30.169Z,32.87
2019-04-14T03:20:32.216Z,37.70
2019-04-14T03:23:43.794Z,35.63
2019-04-14T03:26:54.202Z,34.90
2019-04-14T03:37:11.431Z,31.43
2019-04-14T03:39:46.211Z,33.67
2019-04-14T03:42:59.368Z,31.33
2019-04-14T03:45:54.759Z,31.40
2019-04-14T03:54:57.000Z,31.77
2019-04-14T03:57:47.647Z,33.53
2019-04-14T04:00:53.303Z,32.00
2019-04-14T04:03:58.605Z,34.40
2019-04-14T04:07:03.842Z,34.43
2019-04-14T04:10:14.300Z,33.00
2019-04-14T04:13:19.415Z,31.30
2019-04-14T04:16:39.736Z,30.53
2019-04-14T04:19:53.462Z,31.00
2019-04-14T04:23:36.125Z,32.60
2019-04-14T04:27:02.935Z,31.37
2019-04-14T04:30:29.949Z,33.37
2019-04-14T04:33:45.737Z,31.90
2019-04-14T04:37:21.868Z,33.13
2019-04-14T04:40:29.184Z,31.57
2019-04-14T04:43:34.143Z,36.20
2019-04-14T04:46:39.464Z,34.93
2019-04-14T04:49:44.738Z,34.20
2019-04-14T04:52:49.748Z,32.27
2019-04-14T04:55:54.714Z,33.50
2019-04-14T04:58:59.661Z,34.47
2019-04-14T05:02:04.790Z,33.93
2019-04-14T05:06:00.283Z,36.40
2019-04-14T05:09:13.016Z,39.27
2019-04-14T05:12:39.886Z,33.90
2019-04-14T05:15:48.943Z,35.53
2019-04-14T05:18:55.133Z,40.23
2019-04-14T05:22:00.630Z,39.03
2019-04-14T05:25:06.059Z,34.50
2019-04-14T05:28:11.270Z,35.50
2019-04-14T05:31:16.495Z,37.47
2019-04-14T05:34:21.607Z,36.50
2019-04-14T05:37:26.903Z,34.43
2019-04-14T05:40:32.200Z,36.40
2019-04-14T05:43:54.867Z,34.03
2019-04-14T05:46:57.823Z,38.67
2019-04-14T05:50:03.177Z,33.23
2019-04-14T05:53:08.663Z,39.63
2019-04-14T05:56:14.358Z,35.50
2019-04-14T05:59:19.914Z,34.40
2019-04-14T06:02:27.811Z,39.73
2019-04-14T06:05:31.840Z,35.30
2019-04-14T06:08:38.971Z,39.50
2019-04-14T06:11:43.909Z,40.90
2019-04-14T06:14:49.286Z,36.00
2019-04-14T06:17:54.228Z,41.07
2019-04-14T06:20:59.259Z,36.30
2019-04-14T06:24:04.325Z,34.53
2019-04-14T06:27:09.334Z,35.07
2019-04-14T06:30:33.480Z,34.63
2019-04-14T06:33:53.581Z,41.47
2019-04-14T06:37:04.592Z,38.23
2019-04-14T06:40:09.711Z,34.87
2019-04-14T06:43:14.616Z,42.67
2019-04-14T06:46:19.543Z,38.00
2019-04-14T06:49:24.464Z,37.10
2019-04-14T06:52:29.388Z,34.90
2019-04-14T06:55:34.586Z,36.67
2019-04-14T06:58:39.505Z,36.43
2019-04-14T07:01:44.505Z,37.53
2019-04-14T07:04:49.522Z,38.03
2019-04-14T07:07:57.321Z,35.17
2019-04-14T07:11:01.158Z,37.67
2019-04-14T07:14:06.226Z,39.27
2019-04-14T07:17:11.192Z,36.13
2019-04-14T07:20:16.562Z,37.73
2019-04-14T07:23:21.497Z,37.70
2019-04-14T07:26:26.443Z,41.03
2019-04-14T07:29:38.419Z,39.07
2019-04-14T07:32:58.515Z,36.93
2019-04-14T07:36:25.373Z,36.57
2019-04-14T07:39:32.174Z,43.00
2019-04-14T07:42:51.048Z,38.50
2019-04-14T07:46:09.696Z,33.47
2019-04-14T07:49:23.328Z,40.13
2019-04-14T07:52:46.145Z,34.93
2019-04-14T07:56:16.013Z,35.50
2019-04-14T07:59:31.139Z,36.43
2019-04-14T08:03:04.063Z,33.20
2019-04-14T08:06:08.975Z,31.60
2019-04-14T08:09:13.905Z,29.53
2019-04-14T08:12:18.876Z,27.63
2019-04-14T08:15:23.862Z,24.20
2019-04-14T08:18:28.834Z,26.60
2019-04-14T08:21:33.863Z,21.20
2019-04-14T08:24:38.777Z,23.13
2019-04-14T08:27:43.772Z,28.77
2019-04-14T08:30:48.688Z,23.10
2019-04-14T08:33:53.625Z,20.40
2019-04-14T08:36:58.625Z,23.07
2019-04-14T08:40:04.047Z,22.53
2019-04-14T08:43:25.213Z,20.77
2019-04-14T08:46:58.028Z,20.70
2019-04-14T08:50:13.644Z,21.13
2019-04-14T08:53:43.509Z,22.63
2019-04-14T08:57:10.346Z,23.33
2019-04-14T09:00:25.748Z,21.87
2019-04-14T09:03:49.756Z,20.87
2019-04-14T09:07:13.732Z,26.93
2019-04-14T09:10:30.394Z,23.87
2019-04-14T09:13:35.394Z,28.30
2019-04-14T09:16:40.338Z,22.73
2019-04-14T09:19:45.268Z,24.67
2019-04-14T09:22:50.284Z,22.10
2019-04-14T09:25:55.210Z,22.97
2019-04-14T09:29:00.161Z,23.60
2019-04-14T09:32:07.898Z,20.57
2019-04-14T09:35:12.974Z,20.77
2019-04-14T09:38:18.000Z,24.87
2019-04-14T09:41:23.017Z,20.33
2019-04-14T09:44:27.948Z,20.00
2019-04-14T09:47:33.060Z,20.43
2019-04-14T09:50:38.221Z,18.60
2019-04-14T09:53:43.717Z,19.40
2019-04-14T09:56:48.737Z,19.83
2019-04-14T09:59:53.717Z,21.03
2019-04-14T10:02:58.641Z,19.37
2019-04-14T10:06:03.752Z,19.40
2019-04-14T10:09:08.885Z,18.60
2019-04-14T10:12:13.889Z,21.23
2019-04-14T10:15:18.804Z,20.13
2019-04-14T10:18:23.765Z,24.00
2019-04-14T10:21:28.805Z,20.13
2019-04-14T10:24:33.832Z,23.37
2019-04-14T10:27:38.761Z,23.10
2019-04-14T10:30:43.773Z,22.03
2019-04-14T10:33:48.829Z,20.50
2019-04-14T10:36:53.754Z,23.77
2019-04-14T10:39:58.766Z,22.97
2019-04-14T10:43:03.764Z,21.87
2019-04-14T10:46:08.697Z,24.57
2019-04-14T10:49:13.794Z,24.07
2019-04-14T10:52:18.874Z,26.17
2019-04-14T10:55:23.803Z,23.27
2019-04-14T10:58:28.738Z,23.97
2019-04-14T11:01:33.933Z,24.70
2019-04-14T11:04:38.850Z,23.90
2019-04-14T11:07:43.890Z,23.60
2019-04-14T11:10:48.813Z,25.27
2019-04-14T11:13:53.732Z,24.50
2019-04-14T11:16:58.736Z,24.20
2019-04-14T11:20:03.953Z,24.23
2019-04-14T11:23:08.984Z,22.90
2019-04-14T11:26:13.926Z,23.20
2019-04-14T11:29:18.849Z,24.10
2019-04-14T11:32:42.857Z,25.60
2019-04-14T11:35:59.494Z,22.20
2019-04-14T11:39:11.305Z,24.87
2019-04-14T11:42:16.245Z,23.80
2019-04-14T11:45:21.245Z,22.50
2019-04-14T11:48:26.176Z,24.53
2019-04-14T11:51:31.267Z,24.03
2019-04-14T11:54:36.280Z,23.57
2019-04-14T11:57:41.304Z,22.60
2019-04-14T12:01:04.182Z,18.60
2019-04-14T12:04:32.046Z,22.20
2019-04-14T12:07:50.408Z,24.87
2019-04-14T12:10:55.462Z,23.40
2019-04-14T12:14:00.389Z,22.37
2019-04-14T12:17:05.416Z,23.03
2019-04-14T12:20:10.609Z,21.87
2019-04-14T12:23:16.142Z,22.50
2019-04-14T12:26:21.456Z,21.50
2019-04-14T12:29:26.464Z,21.90
2019-04-14T12:32:31.612Z,24.10
2019-04-14T12:35:36.732Z,21.53
2019-04-14T12:38:41.678Z,21.90
2019-04-14T12:41:51.033Z,21.57
2019-04-14T12:45:13.016Z,21.13
2019-04-14T12:48:40.220Z,20.63
2019-04-14T12:52:05.280Z,20.00
2019-04-14T12:55:10.446Z,18.90
2019-04-14T12:58:16.029Z,24.60
2019-04-14T13:01:22.066Z,20.00
2019-04-14T13:04:27.147Z,19.13
2019-04-14T13:07:32.126Z,19.93
2019-04-14T13:10:37.231Z,18.73
2019-04-14T13:13:42.265Z,20.57
2019-04-14T13:16:47.273Z,20.53
2019-04-14T13:19:52.297Z,19.83
2019-04-14T13:22:57.404Z,19.00
2019-04-14T13:26:02.486Z,18.50
2019-04-14T13:29:07.516Z,17.47
2019-04-14T13:32:12.571Z,18.00
2019-04-14T13:35:17.756Z,16.53
2019-04-14T13:38:22.721Z,18.20
2019-04-14T13:41:27.998Z,18.23
2019-04-14T13:44:33.102Z,16.43
2019-04-14T13:47:38.063Z,17.20
2019-04-14T13:50:43.115Z,15.00
2019-04-14T13:53:48.212Z,16.83
2019-04-14T13:56:53.303Z,16.47
2019-04-14T13:59:59.333Z,14.33
2019-04-14T14:03:04.464Z,15.77
2019-04-14T14:06:09.593Z,14.27
2019-04-14T14:09:14.714Z,14.60
2019-04-14T14:12:25.653Z,13.33
2019-04-14T14:15:50.218Z,13.20
2019-04-14T14:19:20.178Z,14.17
2019-04-14T14:22:38.998Z,11.10
2019-04-14T14:25:48.334Z,11.97
2019-04-14T14:28:53.372Z,11.23
2019-04-14T14:31:59.334Z,11.03
2019-04-14T14:35:05.439Z,11.20
2019-04-14T14:38:10.918Z,11.80
2019-04-14T14:41:17.444Z,10.23
2019-04-14T14:44:24.037Z,12.13
2019-04-14T14:47:30.519Z,10.90
2019-04-14T14:50:42.355Z,10.77
2019-04-14T14:53:47.737Z,10.97
2019-04-14T14:56:52.814Z,9.53
2019-04-14T14:59:57.838Z,9.87
2019-04-14T15:03:03.698Z,9.17
2019-04-14T15:06:08.814Z,10.00
2019-04-14T15:09:14.007Z,9.17
2019-04-14T15:12:18.970Z,8.97
2019-04-14T15:15:23.961Z,9.20
2019-04-14T15:18:29.201Z,8.23
2019-04-14T15:21:34.194Z,8.93
2019-04-14T15:24:39.592Z,8.67
2019-04-14T15:27:44.716Z,9.37
2019-04-14T15:30:49.774Z,8.50
2019-04-14T15:33:54.833Z,8.40
2019-04-14T15:36:59.861Z,8.87
2019-04-14T15:40:05.386Z,9.17
2019-04-14T15:43:10.497Z,8.30
2019-04-14T15:46:15.633Z,11.53
2019-04-14T15:49:20.619Z,9.40
2019-04-14T15:52:25.569Z,10.43
2019-04-14T15:55:30.623Z,10.90
2019-04-14T15:58:46.971Z,11.60
2019-04-14T16:02:19.268Z,11.00
2019-04-14T16:05:30.045Z,10.27
2019-04-14T16:08:44.363Z,10.00
2019-04-14T16:11:57.572Z,9.23
2019-04-14T16:15:21.113Z,9.77
2019-04-14T16:18:43.786Z,9.40
2019-04-14T16:21:48.689Z,8.13
2019-04-14T16:24:53.950Z,8.67
2019-04-14T16:28:14.525Z,8.63
2019-04-14T16:31:38.573Z,8.80
2019-04-14T16:34:50.085Z,12.20
2019-04-14T16:37:55.424Z,19.57
2019-04-14T16:41:00.559Z,16.70
2019-04-14T16:44:05.643Z,17.70
2019-04-14T16:47:11.005Z,10.63
2019-04-14T16:50:16.084Z,10.03
2019-04-14T16:53:30.340Z,9.13
2019-04-14T16:57:10.159Z,9.33
2019-04-14T17:00:22.293Z,9.77
2019-04-14T17:03:27.493Z,10.40
2019-04-14T17:06:33.133Z,10.60
2019-04-14T17:09:38.183Z,11.93
2019-04-14T17:12:43.256Z,11.27
2019-04-14T17:16:13.385Z,12.67
2019-04-14T17:19:28.793Z,12.80
2019-04-14T17:22:55.682Z,12.87
2019-04-14T17:26:05.621Z,11.43
2019-04-14T17:29:24.689Z,12.10
2019-04-14T17:32:47.542Z,11.33
2019-04-14T17:36:11.222Z,13.37
2019-04-14T17:39:26.064Z,11.63
2019-04-14T17:42:36.656Z,14.60
2019-04-14T17:46:06.604Z,12.40
2019-04-14T17:49:23.973Z,12.10
2019-04-14T17:52:41.329Z,12.43
2019-04-14T17:55:52.580Z,12.40
2019-04-14T17:59:13.438Z,13.20
2019-04-14T18:02:23.155Z,12.73
2019-04-14T18:05:41.144Z,11.90
2019-04-14T18:09:07.992Z,12.77
2019-04-14T18:12:21.916Z,11.80
2019-04-14T18:15:52.463Z,12.20
2019-04-14T18:19:07.625Z,11.73
2019-04-14T18:22:12.622Z,12.03
2019-04-14T18:25:17.779Z,15.13
2019-04-14T18:28:43.280Z,12.37
2019-04-14T18:32:03.484Z,12.87
2019-04-14T18:35:36.575Z,12.57
2019-04-14T18:38:59.172Z,12.17
2019-04-14T18:42:29.319Z,11.97
2019-04-14T18:45:44.552Z,13.73
2019-04-14T18:49:07.614Z,12.57
2019-04-14T18:52:31.732Z,12.37
2019-04-14T18:55:58.269Z,13.00
2019-04-14T18:59:25.177Z,12.07
2019-04-14T19:02:30.096Z,12.73
2019-04-14T19:05:35.081Z,11.93
2019-04-14T19:08:40.509Z,11.03
2019-04-14T19:12:17.075Z,12.50
2019-04-14T19:15:33.051Z,12.50
2019-04-14T19:18:41.131Z,13.23
2019-04-14T19:21:46.204Z,13.10
2019-04-14T19:24:51.217Z,13.27
2019-04-14T19:27:56.169Z,14.00
2019-04-14T19:31:01.145Z,12.90
2019-04-14T19:34:06.096Z,12.70
2019-04-14T19:37:11.120Z,11.93
2019-04-14T19:40:16.054Z,11.40
2019-04-14T19:43:24.107Z,12.70
2019-04-14T19:46:27.918Z,11.47
2019-04-14T19:49:32.941Z,11.23
2019-04-14T19:52:37.889Z,12.90
2019-04-14T19:55:42.918Z,13.17
2019-04-14T19:58:47.924Z,13.50
2019-04-14T20:01:53.008Z,14.47
2019-04-14T20:04:57.939Z,12.20
2019-04-14T20:08:02.888Z,14.73
2019-04-14T20:11:07.812Z,14.00
2019-04-14T20:14:12.760Z,13.47
2019-04-14T20:17:27.846Z,13.60
2019-04-14T20:20:57.363Z,12.93
2019-04-14T20:24:27.633Z,14.23
2019-04-14T20:27:36.753Z,13.30
2019-04-14T20:30:45.669Z,13.40
2019-04-14T20:33:50.799Z,13.50
2019-04-14T20:36:55.894Z,13.33
2019-04-14T20:40:00.988Z,13.20
2019-04-14T20:43:05.992Z,12.43
2019-04-14T20:46:11.272Z,13.37
2019-04-14T20:49:16.264Z,13.40
2019-04-14T20:52:21.368Z,14.43
2019-04-14T20:55:26.381Z,14.57
2019-04-14T20:58:31.486Z,14.80
2019-04-14T21:01:39.344Z,15.30
2019-04-14T21:05:17.091Z,14.60
2019-04-14T21:08:39.968Z,14.50
2019-04-14T21:11:59.489Z,14.90
2019-04-14T21:15:14.990Z,14.63
2019-04-14T21:18:36.510Z,15.20
2019-04-14T21:22:09.741Z,15.90
2019-04-14T21:25:27.969Z,14.93
2019-04-14T21:28:47.608Z,15.73
2019-04-14T21:31:55.630Z,16.80
2019-04-14T21:35:18.729Z,15.37
2019-04-14T21:38:41.035Z,16.33
2019-04-14T21:41:47.845Z,16.87
2019-04-14T21:44:52.830Z,19.03
2019-04-14T21:47:58.205Z,14.87
2019-04-14T21:51:03.187Z,15.43
2019-04-14T21:54:08.219Z,15.30
2019-04-14T21:57:47.397Z,15.00
2019-04-14T22:01:40.886Z,13.57
2019-04-14T22:05:00.707Z,13.80
2019-04-14T22:08:12.198Z,13.77
2019-04-14T22:11:21.060Z,14.50
2019-04-14T22:14:26.062Z,13.67
2019-04-14T22:17:31.069Z,14.73
2019-04-14T22:20:36.073Z,13.13
2019-04-14T22:23:41.285Z,14.90
2019-04-14T22:26:46.366Z,13.07
2019-04-14T22:29:51.367Z,14.27
2019-04-14T22:32:56.430Z,15.53
2019-04-14T22:36:01.581Z,15.13
2019-04-14T22:39:08.809Z,13.40
2019-04-14T22:42:13.816Z,15.77
2019-04-14T22:45:18.884Z,16.40
2019-04-14T22:48:23.808Z,15.63
2019-04-14T22:51:28.896Z,16.37
2019-04-14T22:54:33.834Z,17.13
2019-04-14T22:57:38.829Z,16.43
2019-04-14T23:00:51.953Z,15.17
2019-04-14T23:04:08.361Z,15.83
2019-04-14T23:07:36.081Z,15.70
2019-04-14T23:11:00.202Z,16.47
2019-04-14T23:14:14.014Z,15.77
2019-04-14T23:17:27.581Z,18.13
2019-04-14T23:20:46.147Z,16.50
2019-04-14T23:24:10.238Z,17.13
2019-04-14T23:27:16.709Z,18.37
2019-04-14T23:30:21.726Z,17.87
2019-04-14T23:33:26.651Z,17.33
2019-04-14T23:36:31.676Z,18.40
2019-04-14T23:39:36.586Z,17.97
2019-04-14T23:42:41.508Z,16.30
2019-04-14T23:45:46.504Z,17.97
2019-04-14T23:48:52.277Z,17.20
2019-04-14T23:51:57.257Z,16.83
2019-04-14T23:55:02.253Z,15.67
2019-04-14T23:58:07.250Z,18.00
